sensor_id;sensor_type;location;lat;lon;timestamp;pressure;altitude;pressure_sealevel;temperature;humidity
34124;BME280;13153;52.316;21.166;2023-02-28T00:00:33;101881.00;;;2.31;53.33
34124;BME280;13153;52.316;21.166;2023-02-28T00:03:00;101884.13;;;2.27;53.45
34124;BME280;13153;52.316;21.166;2023-02-28T00:05:27;101884.50;;;2.21;53.31
34124;BME280;13153;52.316;21.166;2023-02-28T00:07:54;101891.13;;;2.18;53.92
34124;BME280;13153;52.316;21.166;2023-02-28T00:10:25;101884.91;;;2.16;53.86
34124;BME280;13153;52.316;21.166;2023-02-28T00:12:54;101880.88;;;2.19;54.28
34124;BME280;13153;52.316;21.166;2023-02-28T00:15:23;101896.31;;;2.18;54.07
34124;BME280;13153;52.316;21.166;2023-02-28T00:17:50;101897.63;;;2.13;54.50
34124;BME280;13153;52.316;21.166;2023-02-28T00:20:16;101890.22;;;2.07;54.35
34124;BME280;13153;52.316;21.166;2023-02-28T00:22:46;101887.50;;;2.06;54.97
34124;BME280;13153;52.316;21.166;2023-02-28T00:25:17;101891.91;;;2.07;54.80
34124;BME280;13153;52.316;21.166;2023-02-28T00:27:44;101897.09;;;2.07;54.89
34124;BME280;13153;52.316;21.166;2023-02-28T00:30:16;101898.53;;;2.03;54.74
34124;BME280;13153;52.316;21.166;2023-02-28T00:32:42;101897.09;;;1.96;54.35
34124;BME280;13153;52.316;21.166;2023-02-28T00:35:09;101900.47;;;1.95;54.66
34124;BME280;13153;52.316;21.166;2023-02-28T00:37:35;101903.59;;;1.91;54.30
34124;BME280;13153;52.316;21.166;2023-02-28T00:40:01;101902.41;;;1.88;54.19
34124;BME280;13153;52.316;21.166;2023-02-28T00:42:30;101897.88;;;1.85;53.87
34124;BME280;13153;52.316;21.166;2023-02-28T00:44:56;101901.00;;;1.81;53.80
34124;BME280;13153;52.316;21.166;2023-02-28T00:47:21;101911.09;;;1.78;54.16
34124;BME280;13153;52.316;21.166;2023-02-28T00:49:47;101905.50;;;1.74;54.33
34124;BME280;13153;52.316;21.166;2023-02-28T00:52:13;101897.38;;;1.69;53.93
34124;BME280;13153;52.316;21.166;2023-02-28T00:54:39;101894.66;;;1.68;54.23
34124;BME280;13153;52.316;21.166;2023-02-28T00:57:05;101904.88;;;1.66;53.84
34124;BME280;13153;52.316;21.166;2023-02-28T00:59:31;101903.84;;;1.64;54.14
34124;BME280;13153;52.316;21.166;2023-02-28T01:01:57;101894.75;;;1.59;54.25
34124;BME280;13153;52.316;21.166;2023-02-28T01:04:22;101899.44;;;1.63;54.43
34124;BME280;13153;52.316;21.166;2023-02-28T01:06:48;101890.09;;;1.65;54.37
34124;BME280;13153;52.316;21.166;2023-02-28T01:09:14;101895.16;;;1.63;54.16
34124;BME280;13153;52.316;21.166;2023-02-28T01:11:40;101898.00;;;1.67;54.06
34124;BME280;13153;52.316;21.166;2023-02-28T01:14:08;101894.50;;;1.66;54.13
34124;BME280;13153;52.316;21.166;2023-02-28T01:16:34;101890.22;;;1.67;54.32
34124;BME280;13153;52.316;21.166;2023-02-28T01:19:00;101889.19;;;1.64;54.54
34124;BME280;13153;52.316;21.166;2023-02-28T01:21:26;101893.34;;;1.62;54.12
34124;BME280;13153;52.316;21.166;2023-02-28T01:23:51;101897.50;;;1.60;54.47
34124;BME280;13153;52.316;21.166;2023-02-28T01:26:21;101903.44;;;1.59;54.40
34124;BME280;13153;52.316;21.166;2023-02-28T01:28:49;101898.41;;;1.61;54.26
34124;BME280;13153;52.316;21.166;2023-02-28T01:31:16;101903.72;;;1.62;54.63
34124;BME280;13153;52.316;21.166;2023-02-28T01:33:44;101911.63;;;1.64;54.81
34124;BME280;13153;52.316;21.166;2023-02-28T01:36:22;101908.91;;;1.62;54.86
34124;BME280;13153;52.316;21.166;2023-02-28T01:38:49;101900.72;;;1.58;54.60
34124;BME280;13153;52.316;21.166;2023-02-28T01:41:25;101904.09;;;1.57;54.71
34124;BME280;13153;52.316;21.166;2023-02-28T01:43:59;101904.75;;;1.54;54.29
34124;BME280;13153;52.316;21.166;2023-02-28T01:46:25;101906.16;;;1.51;54.80
34124;BME280;13153;52.316;21.166;2023-02-28T01:49:15;101906.03;;;1.49;54.83
34124;BME280;13153;52.316;21.166;2023-02-28T01:51:45;101902.50;;;1.39;54.61
34124;BME280;13153;52.316;21.166;2023-02-28T01:54:34;101900.66;;;1.38;55.08
34124;BME280;13153;52.316;21.166;2023-02-28T01:57:13;101905.88;;;1.38;54.81
34124;BME280;13153;52.316;21.166;2023-02-28T01:59:48;101904.03;;;1.37;55.06
34124;BME280;13153;52.316;21.166;2023-02-28T02:02:19;101905.34;;;1.42;55.36
34124;BME280;13153;52.316;21.166;2023-02-28T02:05:21;101901.22;;;1.44;55.18
34124;BME280;13153;52.316;21.166;2023-02-28T02:07:52;101895.84;;;1.32;54.82
34124;BME280;13153;52.316;21.166;2023-02-28T02:10:51;101902.97;;;1.24;54.94
34124;BME280;13153;52.316;21.166;2023-02-28T02:13:59;101901.38;;;1.16;55.46
34124;BME280;13153;52.316;21.166;2023-02-28T02:23:14;101899.69;;;1.17;55.06
34124;BME280;13153;52.316;21.166;2023-02-28T02:43:07;101917.34;;;1.11;55.10
34124;BME280;13153;52.316;21.166;2023-02-28T02:45:43;101908.00;;;1.13;55.05
34124;BME280;13153;52.316;21.166;2023-02-28T02:48:16;101913.34;;;1.14;55.04
34124;BME280;13153;52.316;21.166;2023-02-28T02:51:07;101916.28;;;1.19;54.99
34124;BME280;13153;52.316;21.166;2023-02-28T02:53:45;101914.47;;;1.18;55.25
34124;BME280;13153;52.316;21.166;2023-02-28T02:56:19;101914.34;;;1.16;54.58
34124;BME280;13153;52.316;21.166;2023-02-28T02:58:49;101914.34;;;1.16;54.29
34124;BME280;13153;52.316;21.166;2023-02-28T03:01:22;101915.94;;;1.14;54.75
34124;BME280;13153;52.316;21.166;2023-02-28T03:04:06;101914.19;;;1.05;54.96
34124;BME280;13153;52.316;21.166;2023-02-28T03:06:33;101922.63;;;1.02;55.37
34124;BME280;13153;52.316;21.166;2023-02-28T03:09:01;101911.19;;;1.00;55.45
34124;BME280;13153;52.316;21.166;2023-02-28T03:11:28;101920.25;;;0.95;55.33
34124;BME280;13153;52.316;21.166;2023-02-28T03:20:35;101907.16;;;0.93;55.41
34124;BME280;13153;52.316;21.166;2023-02-28T03:23:21;101915.28;;;0.88;55.08
34124;BME280;13153;52.316;21.166;2023-02-28T03:26:20;101911.66;;;0.86;55.18
34124;BME280;13153;52.316;21.166;2023-02-28T03:29:05;101917.47;;;0.83;55.38
34124;BME280;13153;52.316;21.166;2023-02-28T03:31:47;101917.97;;;0.79;55.51
34124;BME280;13153;52.316;21.166;2023-02-28T03:34:27;101915.38;;;0.79;55.41
34124;BME280;13153;52.316;21.166;2023-02-28T03:37:02;101917.81;;;0.78;55.15
34124;BME280;13153;52.316;21.166;2023-02-28T03:39:43;101926.38;;;0.77;55.38
34124;BME280;13153;52.316;21.166;2023-02-28T03:42:20;101918.31;;;0.74;55.24
34124;BME280;13153;52.316;21.166;2023-02-28T03:45:11;101916.22;;;0.70;55.25
34124;BME280;13153;52.316;21.166;2023-02-28T03:47:52;101924.63;;;0.67;55.27
34124;BME280;13153;52.316;21.166;2023-02-28T03:50:27;101925.81;;;0.71;55.21
34124;BME280;13153;52.316;21.166;2023-02-28T03:53:23;101923.50;;;0.74;54.95
34124;BME280;13153;52.316;21.166;2023-02-28T03:58:39;101928.75;;;0.65;54.81
34124;BME280;13153;52.316;21.166;2023-02-28T04:01:17;101928.47;;;0.62;55.15
34124;BME280;13153;52.316;21.166;2023-02-28T04:03:44;101933.50;;;0.60;55.13
34124;BME280;13153;52.316;21.166;2023-02-28T04:06:18;101922.72;;;0.46;55.13
34124;BME280;13153;52.316;21.166;2023-02-28T04:08:46;101928.78;;;0.46;54.89
34124;BME280;13153;52.316;21.166;2023-02-28T04:13:40;101924.31;;;0.54;54.81
34124;BME280;13153;52.316;21.166;2023-02-28T04:16:09;101923.88;;;0.30;55.21
34124;BME280;13153;52.316;21.166;2023-02-28T04:18:39;101928.34;;;0.23;55.11
34124;BME280;13153;52.316;21.166;2023-02-28T04:21:06;101923.53;;;0.17;55.28
34124;BME280;13153;52.316;21.166;2023-02-28T04:23:33;101924.31;;;0.35;54.84
34124;BME280;13153;52.316;21.166;2023-02-28T04:25:59;101928.22;;;0.21;54.97
34124;BME280;13153;52.316;21.166;2023-02-28T04:28:25;101924.91;;;0.14;55.51
34124;BME280;13153;52.316;21.166;2023-02-28T04:30:56;101934.22;;;0.12;55.45
34124;BME280;13153;52.316;21.166;2023-02-28T04:33:22;101934.06;;;0.10;55.63
34124;BME280;13153;52.316;21.166;2023-02-28T04:35:48;101929.38;;;0.06;55.15
34124;BME280;13153;52.316;21.166;2023-02-28T04:38:22;101929.25;;;0.05;55.20
34124;BME280;13153;52.316;21.166;2023-02-28T04:40:48;101930.00;;;0.04;54.96
34124;BME280;13153;52.316;21.166;2023-02-28T04:43:14;101934.13;;;0.02;55.67
34124;BME280;13153;52.316;21.166;2023-02-28T04:45:40;101938.41;;;0.01;55.50
34124;BME280;13153;52.316;21.166;2023-02-28T04:48:06;101932.44;;;0.02;55.18
34124;BME280;13153;52.316;21.166;2023-02-28T04:50:31;101937.63;;;0.02;55.49
34124;BME280;13153;52.316;21.166;2023-02-28T04:52:57;101935.69;;;-0.01;55.04
34124;BME280;13153;52.316;21.166;2023-02-28T04:55:23;101939.69;;;-0.04;55.62
34124;BME280;13153;52.316;21.166;2023-02-28T04:57:49;101939.25;;;-0.09;55.23
34124;BME280;13153;52.316;21.166;2023-02-28T05:00:15;101937.72;;;-0.07;55.53
34124;BME280;13153;52.316;21.166;2023-02-28T05:02:42;101939.38;;;-0.07;55.61
34124;BME280;13153;52.316;21.166;2023-02-28T05:05:08;101941.06;;;-0.08;55.52
34124;BME280;13153;52.316;21.166;2023-02-28T05:07:34;101944.84;;;-0.04;55.31
34124;BME280;13153;52.316;21.166;2023-02-28T05:10:00;101946.81;;;-0.02;55.28
34124;BME280;13153;52.316;21.166;2023-02-28T05:12:26;101953.81;;;-0.01;55.26
34124;BME280;13153;52.316;21.166;2023-02-28T05:14:51;101955.75;;;0.02;55.40
34124;BME280;13153;52.316;21.166;2023-02-28T05:17:17;101959.25;;;0.03;55.36
34124;BME280;13153;52.316;21.166;2023-02-28T05:19:43;101960.44;;;0.06;55.43
34124;BME280;13153;52.316;21.166;2023-02-28T05:22:14;101969.88;;;0.06;55.48
34124;BME280;13153;52.316;21.166;2023-02-28T05:24:42;101966.38;;;0.05;55.66
34124;BME280;13153;52.316;21.166;2023-02-28T05:27:09;101971.69;;;0.07;55.38
34124;BME280;13153;52.316;21.166;2023-02-28T05:29:35;101981.13;;;0.06;55.34
34124;BME280;13153;52.316;21.166;2023-02-28T05:32:10;101982.34;;;0.10;55.26
34124;BME280;13153;52.316;21.166;2023-02-28T05:34:40;101984.44;;;0.14;55.11
34124;BME280;13153;52.316;21.166;2023-02-28T05:37:12;101983.47;;;0.22;55.47
34124;BME280;13153;52.316;21.166;2023-02-28T05:39:38;101991.06;;;0.29;55.04
34124;BME280;13153;52.316;21.166;2023-02-28T05:42:05;101989.47;;;0.40;54.59
34124;BME280;13153;52.316;21.166;2023-02-28T05:44:30;101995.44;;;0.57;54.66
34124;BME280;13153;52.316;21.166;2023-02-28T05:46:56;101994.78;;;0.79;54.17
34124;BME280;13153;52.316;21.166;2023-02-28T05:49:22;101994.00;;;0.98;53.59
34124;BME280;13153;52.316;21.166;2023-02-28T05:51:48;101997.84;;;1.22;53.81
34124;BME280;13153;52.316;21.166;2023-02-28T05:54:14;101994.06;;;1.48;52.51
34124;BME280;13153;52.316;21.166;2023-02-28T05:56:39;102006.84;;;1.75;52.54
34124;BME280;13153;52.316;21.166;2023-02-28T05:59:06;101996.00;;;1.99;51.68
34124;BME280;13153;52.316;21.166;2023-02-28T06:01:39;102005.13;;;2.25;51.41
34124;BME280;13153;52.316;21.166;2023-02-28T06:04:09;102006.41;;;2.50;50.43
34124;BME280;13153;52.316;21.166;2023-02-28T06:06:36;102009.00;;;2.71;50.25
34124;BME280;13153;52.316;21.166;2023-02-28T06:09:04;102008.16;;;2.92;50.07
34124;BME280;13153;52.316;21.166;2023-02-28T06:11:31;102014.09;;;3.11;49.42
34124;BME280;13153;52.316;21.166;2023-02-28T06:13:59;102012.22;;;3.30;48.59
34124;BME280;13153;52.316;21.166;2023-02-28T06:16:28;102018.34;;;3.53;48.96
34124;BME280;13153;52.316;21.166;2023-02-28T06:18:57;102017.59;;;3.76;48.47
34124;BME280;13153;52.316;21.166;2023-02-28T06:21:23;102015.56;;;3.93;47.32
34124;BME280;13153;52.316;21.166;2023-02-28T06:23:49;102008.91;;;4.09;47.27
34124;BME280;13153;52.316;21.166;2023-02-28T06:26:16;102006.16;;;4.29;47.47
34124;BME280;13153;52.316;21.166;2023-02-28T06:28:42;102014.31;;;4.55;46.97
34124;BME280;13153;52.316;21.166;2023-02-28T06:31:11;102007.84;;;4.74;45.68
34124;BME280;13153;52.316;21.166;2023-02-28T06:33:38;102007.44;;;4.91;46.12
34124;BME280;13153;52.316;21.166;2023-02-28T06:36:06;101996.09;;;5.14;45.64
34124;BME280;13153;52.316;21.166;2023-02-28T06:38:34;101993.00;;;5.31;45.04
34124;BME280;13153;52.316;21.166;2023-02-28T06:41:01;101987.78;;;5.43;44.94
34124;BME280;13153;52.316;21.166;2023-02-28T06:43:35;101984.91;;;5.63;44.79
34124;BME280;13153;52.316;21.166;2023-02-28T06:46:03;101984.59;;;5.83;44.63
34124;BME280;13153;52.316;21.166;2023-02-28T06:48:30;101994.09;;;6.06;44.20
34124;BME280;13153;52.316;21.166;2023-02-28T06:51:14;101982.94;;;6.09;42.57
34124;BME280;13153;52.316;21.166;2023-02-28T06:53:41;101977.66;;;5.95;42.67
34124;BME280;13153;52.316;21.166;2023-02-28T06:56:10;101980.22;;;6.07;43.00
34124;BME280;13153;52.316;21.166;2023-02-28T06:58:37;101982.00;;;6.20;43.83
34124;BME280;13153;52.316;21.166;2023-02-28T07:01:04;101961.13;;;6.46;42.95
34124;BME280;13153;52.316;21.166;2023-02-28T07:03:31;101965.94;;;6.78;42.78
34124;BME280;13153;52.316;21.166;2023-02-28T07:05:57;101961.69;;;6.93;41.83
34124;BME280;13153;52.316;21.166;2023-02-28T07:08:24;101963.81;;;6.99;40.97
34124;BME280;13153;52.316;21.166;2023-02-28T07:10:55;101964.72;;;7.13;41.36
34124;BME280;13153;52.316;21.166;2023-02-28T07:13:22;101959.78;;;7.31;41.26
34124;BME280;13153;52.316;21.166;2023-02-28T07:16:00;101969.34;;;7.43;40.34
34124;BME280;13153;52.316;21.166;2023-02-28T07:18:27;101969.75;;;7.36;40.31
34124;BME280;13153;52.316;21.166;2023-02-28T07:20:53;101966.38;;;7.52;41.13
34124;BME280;13153;52.316;21.166;2023-02-28T07:23:20;101960.47;;;7.82;41.16
34124;BME280;13153;52.316;21.166;2023-02-28T07:25:46;101965.59;;;8.09;40.57
34124;BME280;13153;52.316;21.166;2023-02-28T07:28:13;101956.72;;;8.35;39.73
34124;BME280;13153;52.316;21.166;2023-02-28T07:30:39;101959.03;;;8.58;38.66
34124;BME280;13153;52.316;21.166;2023-02-28T07:33:05;101968.06;;;8.78;38.28
34124;BME280;13153;52.316;21.166;2023-02-28T07:35:31;101963.69;;;8.93;37.38
34124;BME280;13153;52.316;21.166;2023-02-28T07:37:59;101959.16;;;9.05;37.75
34124;BME280;13153;52.316;21.166;2023-02-28T07:40:25;101962.09;;;9.26;38.04
34124;BME280;13153;52.316;21.166;2023-02-28T07:42:51;101962.06;;;9.41;36.18
34124;BME280;13153;52.316;21.166;2023-02-28T07:45:17;101972.63;;;9.57;35.62
34124;BME280;13153;52.316;21.166;2023-02-28T07:47:43;101978.66;;;9.71;34.85
34124;BME280;13153;52.316;21.166;2023-02-28T07:50:13;101966.66;;;9.76;34.61
34124;BME280;13153;52.316;21.166;2023-02-28T07:52:43;101968.09;;;9.54;34.60
34124;BME280;13153;52.316;21.166;2023-02-28T07:55:10;101970.22;;;9.31;35.29
34124;BME280;13153;52.316;21.166;2023-02-28T07:57:36;101967.59;;;9.31;35.76
34124;BME280;13153;52.316;21.166;2023-02-28T08:00:09;101972.19;;;9.49;35.22
34124;BME280;13153;52.316;21.166;2023-02-28T08:02:36;101976.19;;;9.43;35.51
34124;BME280;13153;52.316;21.166;2023-02-28T08:05:02;101963.09;;;9.28;35.61
34124;BME280;13153;52.316;21.166;2023-02-28T08:07:28;101969.94;;;8.95;35.34
34124;BME280;13153;52.316;21.166;2023-02-28T08:09:54;101971.41;;;8.90;36.25
34124;BME280;13153;52.316;21.166;2023-02-28T08:12:20;101972.84;;;9.00;36.12
34124;BME280;13153;52.316;21.166;2023-02-28T08:14:46;101971.84;;;8.98;35.86
34124;BME280;13153;52.316;21.166;2023-02-28T08:17:12;101966.69;;;8.99;35.48
34124;BME280;13153;52.316;21.166;2023-02-28T08:19:38;101962.69;;;9.06;35.55
34124;BME280;13153;52.316;21.166;2023-02-28T08:22:05;101973.69;;;9.30;35.73
34124;BME280;13153;52.316;21.166;2023-02-28T08:24:31;101977.63;;;9.52;34.86
34124;BME280;13153;52.316;21.166;2023-02-28T08:26:57;101984.16;;;9.75;34.24
34124;BME280;13153;52.316;21.166;2023-02-28T08:29:24;101972.91;;;9.94;33.62
34124;BME280;13153;52.316;21.166;2023-02-28T08:31:49;101981.03;;;9.99;33.82
34124;BME280;13153;52.316;21.166;2023-02-28T08:34:16;101983.50;;;10.12;33.17
34124;BME280;13153;52.316;21.166;2023-02-28T08:36:43;101980.91;;;10.28;33.04
34124;BME280;13153;52.316;21.166;2023-02-28T08:39:11;101987.66;;;10.39;32.69
34124;BME280;13153;52.316;21.166;2023-02-28T08:41:37;101987.28;;;10.17;32.47
34124;BME280;13153;52.316;21.166;2023-02-28T08:44:03;101988.59;;;10.09;33.28
34124;BME280;13153;52.316;21.166;2023-02-28T08:46:29;101982.56;;;10.26;32.95
34124;BME280;13153;52.316;21.166;2023-02-28T08:48:56;101981.88;;;10.46;32.88
34124;BME280;13153;52.316;21.166;2023-02-28T08:51:26;101976.59;;;10.46;32.90
34124;BME280;13153;52.316;21.166;2023-02-28T08:53:58;101982.84;;;10.48;32.78
34124;BME280;13153;52.316;21.166;2023-02-28T08:56:27;101989.09;;;10.02;32.36
34124;BME280;13153;52.316;21.166;2023-02-28T08:58:56;101984.41;;;9.49;32.96
34124;BME280;13153;52.316;21.166;2023-02-28T09:01:28;101988.97;;;9.06;34.53
34124;BME280;13153;52.316;21.166;2023-02-28T09:03:56;101983.34;;;8.85;35.28
34124;BME280;13153;52.316;21.166;2023-02-28T09:06:25;101987.16;;;8.75;34.84
34124;BME280;13153;52.316;21.166;2023-02-28T09:08:52;101991.84;;;8.81;35.44
34124;BME280;13153;52.316;21.166;2023-02-28T09:11:19;101985.44;;;8.61;35.15
34124;BME280;13153;52.316;21.166;2023-02-28T09:13:46;101991.31;;;8.72;35.93
34124;BME280;13153;52.316;21.166;2023-02-28T09:16:15;101987.16;;;8.75;35.12
34124;BME280;13153;52.316;21.166;2023-02-28T09:18:43;101990.31;;;8.70;34.96
34124;BME280;13153;52.316;21.166;2023-02-28T09:21:16;101988.97;;;8.62;35.91
34124;BME280;13153;52.316;21.166;2023-02-28T09:23:44;101987.25;;;8.91;35.78
34124;BME280;13153;52.316;21.166;2023-02-28T09:26:22;101985.91;;;9.29;35.09
34124;BME280;13153;52.316;21.166;2023-02-28T09:28:49;101986.22;;;9.50;34.88
34124;BME280;13153;52.316;21.166;2023-02-28T09:31:26;101984.34;;;9.33;34.39
34124;BME280;13153;52.316;21.166;2023-02-28T09:33:55;101983.50;;;9.17;35.21
34124;BME280;13153;52.316;21.166;2023-02-28T09:36:23;101980.25;;;9.21;35.29
34124;BME280;13153;52.316;21.166;2023-02-28T09:38:49;101981.34;;;8.81;35.10
34124;BME280;13153;52.316;21.166;2023-02-28T09:41:22;101978.47;;;8.47;35.48
34124;BME280;13153;52.316;21.166;2023-02-28T09:44:02;101978.66;;;8.50;36.80
34124;BME280;13153;52.316;21.166;2023-02-28T09:46:45;101978.22;;;8.57;36.07
34124;BME280;13153;52.316;21.166;2023-02-28T09:49:19;101985.44;;;8.76;36.60
34124;BME280;13153;52.316;21.166;2023-02-28T09:52:30;101982.81;;;9.05;35.60
34124;BME280;13153;52.316;21.166;2023-02-28T09:55:12;101985.97;;;9.14;36.01
34124;BME280;13153;52.316;21.166;2023-02-28T09:57:44;101985.72;;;9.26;34.87
34124;BME280;13153;52.316;21.166;2023-02-28T10:00:19;101991.69;;;9.69;35.16
34124;BME280;13153;52.316;21.166;2023-02-28T10:03:18;101986.34;;;9.84;34.88
34124;BME280;13153;52.316;21.166;2023-02-28T10:06:19;101998.78;;;9.70;34.46
34124;BME280;13153;52.316;21.166;2023-02-28T10:09:10;101990.72;;;9.83;35.00
34124;BME280;13153;52.316;21.166;2023-02-28T10:11:40;101994.25;;;9.84;34.22
34124;BME280;13153;52.316;21.166;2023-02-28T10:14:23;101990.16;;;9.89;33.91
34124;BME280;13153;52.316;21.166;2023-02-28T10:16:55;101993.69;;;9.73;33.78
34124;BME280;13153;52.316;21.166;2023-02-28T10:19:42;101990.41;;;9.46;33.83
34124;BME280;13153;52.316;21.166;2023-02-28T10:24:47;101989.03;;;9.07;34.57
34124;BME280;13153;52.316;21.166;2023-02-28T10:27:18;101983.16;;;8.82;35.33
34124;BME280;13153;52.316;21.166;2023-02-28T10:29:51;101985.88;;;8.69;35.27
34124;BME280;13153;52.316;21.166;2023-02-28T10:32:35;101979.56;;;8.65;35.45
34124;BME280;13153;52.316;21.166;2023-02-28T10:35:19;101975.28;;;8.67;36.19
34124;BME280;13153;52.316;21.166;2023-02-28T10:37:54;101979.75;;;8.53;35.08
34124;BME280;13153;52.316;21.166;2023-02-28T10:45:56;101970.31;;;8.72;35.93
34124;BME280;13153;52.316;21.166;2023-02-28T10:48:29;101963.81;;;8.65;36.03
34124;BME280;13153;52.316;21.166;2023-02-28T10:50:55;101964.88;;;8.69;35.47
34124;BME280;13153;52.316;21.166;2023-02-28T10:53:34;101963.81;;;8.65;35.17
34124;BME280;13153;52.316;21.166;2023-02-28T10:56:23;101961.19;;;8.50;35.75
34124;BME280;13153;52.316;21.166;2023-02-28T10:59:26;101957.66;;;8.50;36.32
34124;BME280;13153;52.316;21.166;2023-02-28T11:01:52;101954.69;;;8.58;36.66
34124;BME280;13153;52.316;21.166;2023-02-28T11:09:38;101943.97;;;9.00;35.97
34124;BME280;13153;52.316;21.166;2023-02-28T11:12:17;101938.25;;;9.07;35.52
34124;BME280;13153;52.316;21.166;2023-02-28T11:15:27;101929.47;;;9.06;34.57
34124;BME280;13153;52.316;21.166;2023-02-28T11:18:05;101935.09;;;8.98;35.10
34124;BME280;13153;52.316;21.166;2023-02-28T11:20:40;101932.38;;;8.96;35.55
34124;BME280;13153;52.316;21.166;2023-02-28T11:23:13;101921.59;;;9.06;36.46
34124;BME280;13153;52.316;21.166;2023-02-28T11:25:40;101928.44;;;9.19;36.60
34124;BME280;13153;52.316;21.166;2023-02-28T11:28:40;101924.69;;;9.30;36.03
34124;BME280;13153;52.316;21.166;2023-02-28T11:31:17;101919.03;;;9.39;35.48
34124;BME280;13153;52.316;21.166;2023-02-28T11:33:51;101912.97;;;9.40;35.32
34124;BME280;13153;52.316;21.166;2023-02-28T11:36:31;101915.25;;;9.34;35.89
34124;BME280;13153;52.316;21.166;2023-02-28T11:39:10;101911.63;;;9.32;36.08
34124;BME280;13153;52.316;21.166;2023-02-28T11:50:20;101907.00;;;9.11;35.95
34124;BME280;13153;52.316;21.166;2023-02-28T11:52:54;101896.09;;;8.89;35.13
34124;BME280;13153;52.316;21.166;2023-02-28T11:58:53;101888.88;;;8.70;35.15
34124;BME280;13153;52.316;21.166;2023-02-28T12:01:56;101886.16;;;8.69;35.66
34124;BME280;13153;52.316;21.166;2023-02-28T12:04:42;101882.09;;;8.74;36.13
34124;BME280;13153;52.316;21.166;2023-02-28T12:07:31;101882.25;;;8.77;36.44
34124;BME280;13153;52.316;21.166;2023-02-28T12:10:24;101884.53;;;8.71;36.07
34124;BME280;13153;52.316;21.166;2023-02-28T12:22:03;101869.41;;;8.67;35.14
34124;BME280;13153;52.316;21.166;2023-02-28T12:27:49;101860.69;;;8.51;35.32
34124;BME280;13153;52.316;21.166;2023-02-28T12:30:27;101867.66;;;8.51;36.18
34124;BME280;13153;52.316;21.166;2023-02-28T12:33:08;101861.69;;;8.53;37.16
34124;BME280;13153;52.316;21.166;2023-02-28T12:35:58;101861.59;;;8.52;36.08
34124;BME280;13153;52.316;21.166;2023-02-28T12:38:31;101865.75;;;8.48;35.51
34124;BME280;13153;52.316;21.166;2023-02-28T12:41:18;101861.41;;;8.49;36.36
34124;BME280;13153;52.316;21.166;2023-02-28T12:43:55;101850.56;;;8.43;36.43
34124;BME280;13153;52.316;21.166;2023-02-28T12:46:32;101851.53;;;8.30;35.23
34124;BME280;13153;52.316;21.166;2023-02-28T12:49:10;101857.88;;;8.34;36.36
34124;BME280;13153;52.316;21.166;2023-02-28T12:51:39;101851.09;;;8.37;36.35
34124;BME280;13153;52.316;21.166;2023-02-28T13:00:03;101843.06;;;8.49;36.22
34124;BME280;13153;52.316;21.166;2023-02-28T13:08:27;101838.31;;;8.28;34.76
34124;BME280;13153;52.316;21.166;2023-02-28T13:11:00;101822.13;;;8.21;35.24
34124;BME280;13153;52.316;21.166;2023-02-28T13:13:29;101827.38;;;8.21;36.15
34124;BME280;13153;52.316;21.166;2023-02-28T13:16:04;101822.31;;;8.24;36.16
34124;BME280;13153;52.316;21.166;2023-02-28T13:18:53;101823.22;;;8.24;35.68
34124;BME280;13153;52.316;21.166;2023-02-28T13:21:28;101813.63;;;8.10;35.33
34124;BME280;13153;52.316;21.166;2023-02-28T13:34:39;101804.88;;;8.24;35.05
34124;BME280;13153;52.316;21.166;2023-02-28T13:47:54;101787.34;;;8.38;35.75
34124;BME280;13153;52.316;21.166;2023-02-28T13:50:40;101789.16;;;8.39;35.53
34124;BME280;13153;52.316;21.166;2023-02-28T14:05:00;101770.44;;;8.33;35.70
34124;BME280;13153;52.316;21.166;2023-02-28T14:07:50;101773.50;;;8.26;34.76
34124;BME280;13153;52.316;21.166;2023-02-28T14:10:32;101764.53;;;8.22;34.93
34124;BME280;13153;52.316;21.166;2023-02-28T14:13:36;101757.41;;;8.20;35.08
34124;BME280;13153;52.316;21.166;2023-02-28T14:16:05;101755.03;;;8.24;36.54
34124;BME280;13153;52.316;21.166;2023-02-28T14:18:40;101750.78;;;8.26;35.71
34124;BME280;13153;52.316;21.166;2023-02-28T14:21:26;101752.34;;;8.23;35.88
34124;BME280;13153;52.316;21.166;2023-02-28T14:27:08;101747.38;;;8.13;35.73
34124;BME280;13153;52.316;21.166;2023-02-28T14:32:33;101742.94;;;8.12;35.75
34124;BME280;13153;52.316;21.166;2023-02-28T14:35:58;101741.13;;;8.11;35.19
34124;BME280;13153;52.316;21.166;2023-02-28T14:38:50;101742.03;;;8.11;35.60
34124;BME280;13153;52.316;21.166;2023-02-28T14:44:00;101735.97;;;8.12;35.80
34124;BME280;13153;52.316;21.166;2023-02-28T14:46:37;101736.97;;;8.14;35.68
34124;BME280;13153;52.316;21.166;2023-02-28T14:49:20;101737.78;;;8.13;36.02
34124;BME280;13153;52.316;21.166;2023-02-28T14:51:50;101729.00;;;8.13;35.80
34124;BME280;13153;52.316;21.166;2023-02-28T14:54:26;101731.81;;;8.16;35.47
34124;BME280;13153;52.316;21.166;2023-02-28T14:56:52;101732.63;;;8.15;35.27
34124;BME280;13153;52.316;21.166;2023-02-28T14:59:32;101726.47;;;8.14;35.28
34124;BME280;13153;52.316;21.166;2023-02-28T15:02:22;101730.91;;;8.15;36.01
34124;BME280;13153;52.316;21.166;2023-02-28T15:04:57;101730.00;;;8.15;36.01
34124;BME280;13153;52.316;21.166;2023-02-28T15:07:24;101739.84;;;8.19;35.36
34124;BME280;13153;52.316;21.166;2023-02-28T15:12:58;101739.13;;;8.21;36.03
34124;BME280;13153;52.316;21.166;2023-02-28T15:15:54;101746.28;;;8.24;35.84
34124;BME280;13153;52.316;21.166;2023-02-28T15:18:47;101745.28;;;8.22;36.09
34124;BME280;13153;52.316;21.166;2023-02-28T15:21:49;101734.88;;;8.23;35.80
34124;BME280;13153;52.316;21.166;2023-02-28T15:24:41;101735.69;;;8.22;35.17
34124;BME280;13153;52.316;21.166;2023-02-28T15:27:28;101732.00;;;8.19;35.72
34124;BME280;13153;52.316;21.166;2023-02-28T15:30:04;101736.06;;;8.14;35.68